Terminal Aerodrome Forecast
Issued by NWS Charleston, WV

Current Version | Previous Version | Graphics & Text | Print | Product List | Glossary On
Versions: 1 2 3 4 5 6 7 8 9 10 11 12 13 14 15 16 17 18 19 20 21 22
000
FTUS41 KRLX 262336
TAFEKN
TAF
KEKN 262336Z 2700/2724 00000KT P6SM BKN035
     FM270500 00000KT 6SM BR SCT035
     FM270700 00000KT 5SM BR SCT035
     FM271100 00000KT 6SM BR SCT025
     FM271300 00000KT P6SM SCT025
     FM271600 00000KT P6SM SCT035=

USA.gov is the U.S. government's official web portal to all federal, state and local government web resources and services.